createdAt,value
2018-07-23T04:32:22.221Z,15.60
2018-07-23T04:34:50.490Z,15.40
2018-07-23T04:37:18.691Z,14.20
2018-07-23T04:39:46.879Z,14.80
2018-07-23T04:42:15.106Z,15.27
2018-07-23T04:44:43.277Z,15.83
2018-07-23T04:47:11.498Z,14.10
2018-07-23T04:49:39.743Z,16.77
2018-07-23T04:52:07.957Z,15.77
2018-07-23T04:54:36.218Z,14.30
2018-07-23T04:57:04.628Z,15.90
2018-07-23T04:59:32.800Z,14.03
2018-07-23T05:02:01.172Z,15.07
2018-07-23T05:04:29.341Z,14.00
2018-07-23T05:06:57.613Z,14.80
2018-07-23T05:09:25.792Z,11.97
2018-07-23T05:11:53.962Z,13.63
2018-07-23T05:14:22.322Z,10.93
2018-07-23T05:16:50.520Z,12.93
2018-07-23T05:19:18.697Z,11.83
2018-07-23T05:21:46.917Z,12.37
2018-07-23T05:24:15.070Z,11.93
2018-07-23T05:26:43.235Z,11.73
2018-07-23T05:29:11.432Z,11.33
2018-07-23T05:31:39.738Z,11.40
2018-07-23T05:34:07.913Z,11.90
2018-07-23T05:36:36.095Z,10.70
2018-07-23T05:39:06.159Z,11.43
2018-07-23T05:41:34.319Z,10.40
2018-07-23T05:44:02.554Z,11.70
2018-07-23T05:46:30.708Z,11.47
2018-07-23T05:48:58.963Z,10.57
2018-07-23T05:51:27.140Z,11.60
2018-07-23T05:53:55.357Z,11.10
2018-07-23T05:56:23.593Z,12.27
2018-07-23T05:58:51.837Z,13.10
2018-07-23T06:01:20.177Z,12.50
2018-07-23T06:03:48.572Z,13.07
2018-07-23T06:06:16.982Z,11.73
2018-07-23T06:08:45.180Z,12.43
2018-07-23T06:11:13.385Z,11.37
2018-07-23T06:13:41.630Z,12.53
2018-07-23T06:16:09.824Z,13.10
2018-07-23T06:18:38.013Z,11.90
2018-07-23T06:21:06.193Z,12.00
2018-07-23T06:23:34.631Z,12.70
2018-07-23T06:26:03.041Z,12.53
2018-07-23T06:28:31.224Z,12.73
2018-07-23T06:30:59.426Z,11.90
2018-07-23T06:33:27.584Z,13.73
2018-07-23T06:35:55.809Z,12.97
2018-07-23T06:38:23.989Z,12.13
2018-07-23T06:40:52.242Z,12.47
2018-07-23T06:43:20.485Z,13.00
2018-07-23T06:45:48.668Z,12.60
2018-07-23T06:48:16.898Z,14.23
2018-07-23T06:50:45.097Z,14.50
2018-07-23T06:53:13.302Z,15.20
2018-07-23T06:55:41.513Z,15.60
2018-07-23T06:58:09.743Z,15.60
2018-07-23T07:00:38.017Z,15.27
2018-07-23T07:03:06.271Z,16.00
2018-07-23T07:05:34.491Z,15.57
2018-07-23T07:08:02.701Z,14.53
2018-07-23T07:10:30.926Z,16.50
2018-07-23T07:12:59.101Z,16.90
2018-07-23T07:15:27.308Z,16.37
2018-07-23T07:17:55.488Z,17.10
2018-07-23T07:20:23.727Z,16.50
2018-07-23T07:22:51.929Z,18.20
2018-07-23T07:25:20.158Z,17.20
2018-07-23T07:27:48.382Z,17.83
2018-07-23T07:30:16.601Z,16.50
2018-07-23T07:32:44.835Z,15.20
2018-07-23T07:35:13.921Z,15.43
2018-07-23T07:37:42.104Z,16.20
2018-07-23T07:40:10.283Z,17.07
2018-07-23T07:42:38.527Z,16.70
2018-07-23T07:45:07.314Z,17.67
2018-07-23T07:47:35.563Z,17.57
2018-07-23T07:50:03.927Z,17.50
2018-07-23T07:52:32.182Z,16.80
2018-07-23T07:55:00.426Z,15.90
2018-07-23T07:57:28.687Z,16.20
2018-07-23T07:59:56.945Z,18.07
2018-07-23T08:02:25.192Z,17.17
2018-07-23T08:04:53.400Z,15.20
2018-07-23T08:07:21.666Z,15.87
2018-07-23T08:09:49.938Z,16.53
2018-07-23T08:12:18.192Z,17.73
2018-07-23T08:14:46.466Z,15.13
2018-07-23T08:17:14.720Z,16.33
2018-07-23T08:19:42.965Z,14.90
2018-07-23T08:22:11.190Z,16.50
2018-07-23T08:24:39.376Z,15.80
2018-07-23T08:27:07.611Z,16.40
2018-07-23T08:29:35.866Z,17.40
2018-07-23T08:32:04.314Z,16.10
2018-07-23T08:34:32.498Z,17.03
2018-07-23T08:37:00.727Z,16.00
2018-07-23T08:39:29.044Z,16.67
2018-07-23T08:41:57.249Z,16.60
2018-07-23T08:44:25.498Z,16.20
2018-07-23T08:46:53.724Z,15.70
2018-07-23T08:49:21.965Z,17.67
2018-07-23T08:51:50.167Z,16.13
2018-07-23T08:54:18.400Z,17.03
2018-07-23T08:56:46.663Z,16.90
2018-07-23T08:59:15.995Z,16.30
2018-07-23T09:01:44.267Z,16.80
2018-07-23T09:04:12.462Z,17.00
2018-07-23T09:06:40.717Z,16.23
2018-07-23T09:09:10.115Z,16.83
2018-07-23T09:11:38.356Z,16.43
2018-07-23T09:14:06.647Z,16.60
2018-07-23T09:16:34.998Z,17.73
2018-07-23T09:19:03.203Z,17.67
2018-07-23T09:21:31.376Z,16.67
2018-07-23T09:23:59.564Z,17.17
2018-07-23T09:26:27.771Z,17.20
2018-07-23T09:28:55.963Z,16.17
2018-07-23T09:31:24.208Z,16.67
2018-07-23T09:33:52.387Z,15.17
2018-07-23T09:36:20.600Z,16.20
2018-07-23T09:38:48.814Z,17.60
2018-07-23T09:41:17.099Z,15.47
2018-07-23T09:43:45.281Z,16.33
2018-07-23T09:46:13.510Z,16.63
2018-07-23T09:48:41.769Z,15.07
2018-07-23T09:51:10.000Z,14.80
2018-07-23T09:53:38.212Z,14.90
2018-07-23T09:56:06.821Z,15.27
2018-07-23T09:58:35.011Z,15.00
2018-07-23T10:01:08.587Z,15.87
2018-07-23T10:03:36.847Z,16.33
2018-07-23T10:06:05.108Z,16.00
2018-07-23T10:08:33.345Z,16.40
2018-07-23T10:11:01.593Z,17.33
2018-07-23T10:13:29.798Z,16.80
2018-07-23T10:15:58.072Z,16.70
2018-07-23T10:18:26.289Z,17.47
2018-07-23T10:20:54.516Z,18.37
2018-07-23T10:23:22.743Z,17.50
2018-07-23T10:25:50.923Z,17.40
2018-07-23T10:28:19.133Z,16.60
2018-07-23T10:30:47.354Z,16.77
2018-07-23T10:33:15.586Z,15.80
2018-07-23T10:35:43.814Z,17.70
2018-07-23T10:38:12.046Z,15.90
2018-07-23T10:40:40.274Z,17.00
2018-07-23T10:43:08.612Z,17.77
2018-07-23T10:45:36.828Z,20.03
2018-07-23T10:48:05.245Z,18.83
2018-07-23T10:50:33.510Z,19.40
2018-07-23T10:53:01.803Z,19.00
2018-07-23T10:55:30.061Z,19.80
2018-07-23T10:57:58.435Z,20.93
2018-07-23T11:00:26.671Z,21.17
2018-07-23T11:02:54.904Z,21.70
2018-07-23T11:05:23.131Z,22.63
2018-07-23T11:07:51.336Z,21.57
2018-07-23T11:10:19.599Z,21.13
2018-07-23T11:12:47.951Z,21.27
2018-07-23T11:15:16.182Z,20.13
2018-07-23T11:17:44.379Z,20.50
2018-07-23T11:20:12.988Z,22.17
2018-07-23T11:22:41.438Z,21.90
2018-07-23T11:25:38.596Z,22.83
2018-07-23T11:27:37.942Z,21.47
2018-07-23T11:30:06.196Z,22.37
2018-07-23T11:32:35.090Z,22.63
2018-07-23T11:35:03.360Z,24.23
2018-07-23T11:37:31.689Z,22.47
2018-07-23T11:39:59.963Z,23.10
2018-07-23T11:42:28.161Z,22.67
2018-07-23T11:44:56.354Z,24.90
2018-07-23T11:47:24.555Z,23.83
2018-07-23T11:49:52.792Z,22.90
2018-07-23T11:52:21.011Z,24.87
2018-07-23T11:54:49.215Z,24.17
2018-07-23T11:57:17.428Z,22.97
2018-07-23T11:59:45.676Z,23.97
2018-07-23T12:02:13.954Z,24.87
2018-07-23T12:04:42.377Z,23.43
2018-07-23T12:07:10.482Z,24.60
2018-07-23T12:09:38.765Z,24.13
2018-07-23T12:12:07.020Z,23.60
2018-07-23T12:14:35.201Z,25.23
2018-07-23T12:17:03.460Z,24.50
2018-07-23T12:19:31.640Z,24.70
2018-07-23T12:21:59.931Z,23.07
2018-07-23T12:24:28.154Z,23.40
2018-07-23T12:26:56.406Z,23.77
2018-07-23T12:29:24.626Z,22.93
2018-07-23T12:31:52.829Z,24.00
2018-07-23T12:34:21.008Z,22.57
2018-07-23T12:36:49.249Z,22.00
2018-07-23T12:39:17.445Z,23.23
2018-07-23T12:41:45.648Z,24.20
2018-07-23T12:44:13.876Z,25.47
2018-07-23T12:46:42.077Z,23.77
2018-07-23T12:49:10.280Z,25.17
2018-07-23T12:54:34.858Z,24.47
2018-07-23T12:57:03.042Z,23.73
2018-07-23T12:59:31.248Z,23.00
2018-07-23T13:01:59.427Z,25.80
2018-07-23T13:04:27.647Z,25.30
2018-07-23T13:06:55.796Z,24.40
2018-07-23T13:09:24.026Z,25.70
2018-07-23T13:11:52.231Z,24.70
2018-07-23T13:14:20.471Z,26.17
2018-07-23T13:16:48.651Z,24.57
2018-07-23T13:19:16.922Z,26.23
2018-07-23T13:21:45.105Z,24.67
2018-07-23T13:24:13.306Z,24.73
2018-07-23T13:26:41.566Z,24.13
2018-07-23T13:29:09.940Z,23.90
2018-07-23T13:31:38.129Z,26.50
2018-07-23T13:34:06.332Z,26.43
2018-07-23T13:36:34.502Z,28.13
2018-07-23T13:39:02.800Z,28.27
2018-07-23T13:41:31.014Z,29.70
2018-07-23T13:43:59.258Z,29.90
2018-07-23T13:46:27.555Z,30.90
2018-07-23T13:48:55.681Z,30.40
2018-07-23T13:51:23.915Z,33.33
2018-07-23T13:53:52.089Z,32.33
2018-07-23T13:56:20.310Z,31.30
2018-07-23T13:58:48.479Z,33.67
2018-07-23T14:01:16.764Z,34.70
2018-07-23T14:03:44.917Z,35.20
2018-07-23T14:06:13.158Z,31.47
2018-07-23T14:08:41.315Z,31.00
2018-07-23T14:11:09.516Z,28.67
2018-07-23T14:13:37.719Z,30.20
2018-07-23T14:16:05.895Z,30.23
2018-07-23T14:18:34.088Z,30.10
2018-07-23T14:21:02.286Z,27.53
2018-07-23T14:23:30.547Z,29.00
2018-07-23T14:25:58.777Z,31.43
2018-07-23T14:28:27.300Z,31.30
2018-07-23T14:30:55.511Z,28.40
2018-07-23T14:33:23.710Z,27.07
2018-07-23T14:35:51.896Z,25.27
2018-07-23T14:38:20.090Z,28.47
2018-07-23T14:40:48.256Z,28.17
2018-07-23T14:43:16.450Z,26.60
2018-07-23T14:45:44.619Z,26.37
2018-07-23T14:48:12.812Z,25.37
2018-07-23T14:50:41.044Z,26.33
2018-07-23T14:53:09.272Z,27.00
2018-07-23T14:55:37.458Z,26.17
2018-07-23T14:58:05.694Z,27.40
2018-07-23T15:00:33.911Z,25.70
2018-07-23T15:03:02.120Z,24.93
2018-07-23T15:05:30.304Z,27.40
2018-07-23T15:07:58.472Z,28.60
2018-07-23T15:10:26.685Z,30.70
2018-07-23T15:12:54.920Z,29.10
2018-07-23T15:15:23.135Z,28.40
2018-07-23T15:17:51.315Z,31.20
2018-07-23T15:20:19.530Z,32.23
2018-07-23T15:22:47.783Z,34.07
2018-07-23T15:25:16.816Z,35.77
2018-07-23T15:27:44.966Z,35.63
2018-07-23T15:30:13.177Z,35.30
2018-07-23T15:32:41.387Z,34.43
2018-07-23T15:35:09.732Z,35.40
2018-07-23T15:37:37.941Z,34.97
2018-07-23T15:40:06.370Z,36.43
2018-07-23T15:42:34.579Z,33.10
2018-07-23T15:45:02.816Z,33.37
2018-07-23T15:47:30.998Z,32.00
2018-07-23T15:49:59.184Z,31.33
2018-07-23T15:52:27.391Z,27.97
2018-07-23T15:54:55.576Z,28.57
2018-07-23T15:57:23.752Z,29.27
2018-07-23T15:59:51.934Z,29.67
2018-07-23T16:02:20.126Z,28.60
2018-07-23T16:04:48.350Z,27.30
2018-07-23T16:07:16.524Z,28.97
2018-07-23T16:09:44.727Z,29.23
2018-07-23T16:12:12.927Z,29.97
2018-07-23T16:14:41.258Z,28.10
2018-07-23T16:17:09.460Z,28.67
2018-07-23T16:19:37.635Z,28.90
2018-07-23T16:22:05.836Z,28.90
2018-07-23T16:24:33.995Z,31.03
2018-07-23T16:27:02.187Z,28.53
2018-07-23T16:29:30.345Z,28.77
2018-07-23T16:31:58.587Z,32.10
2018-07-23T16:34:26.767Z,33.40
2018-07-23T16:36:54.920Z,43.97
2018-07-23T16:39:23.082Z,35.37
2018-07-23T16:41:51.276Z,30.17
2018-07-23T16:44:19.401Z,32.03
2018-07-23T16:46:47.658Z,30.30
2018-07-23T16:49:15.747Z,31.07
2018-07-23T16:51:43.945Z,30.47
2018-07-23T16:54:12.197Z,32.17
2018-07-23T16:56:40.327Z,31.80
2018-07-23T16:59:08.503Z,32.50
2018-07-23T17:01:36.659Z,35.13
2018-07-23T17:04:04.864Z,31.00
2018-07-23T17:06:33.010Z,33.00
2018-07-23T17:09:02.207Z,33.50
2018-07-23T17:11:30.346Z,32.20
2018-07-23T17:13:58.520Z,31.07
2018-07-23T17:16:26.672Z,31.20
2018-07-23T17:18:54.888Z,30.27
2018-07-23T17:21:23.139Z,32.23
2018-07-23T17:23:51.335Z,30.00
2018-07-23T17:26:19.562Z,30.90
2018-07-23T17:28:47.744Z,29.07
2018-07-23T17:31:15.931Z,28.93
2018-07-23T17:33:44.101Z,28.83
2018-07-23T17:36:12.266Z,27.70
2018-07-23T17:38:40.643Z,28.30
2018-07-23T17:41:08.815Z,28.80
2018-07-23T17:43:36.990Z,27.97
2018-07-23T17:46:05.199Z,27.10
2018-07-23T17:48:33.398Z,27.90
2018-07-23T17:51:01.582Z,28.77
2018-07-23T17:53:29.776Z,28.00
2018-07-23T17:55:57.940Z,28.23
2018-07-23T17:58:26.161Z,28.97
2018-07-23T18:00:54.373Z,28.87
2018-07-23T18:03:22.568Z,27.50
2018-07-23T18:05:50.765Z,27.30
2018-07-23T18:08:18.947Z,25.87
2018-07-23T18:10:47.225Z,26.60
2018-07-23T18:13:15.365Z,25.47
2018-07-23T18:15:43.658Z,25.00
2018-07-23T18:18:11.805Z,27.57
2018-07-23T18:20:40.011Z,25.47
2018-07-23T18:23:08.313Z,27.33
2018-07-23T18:25:36.484Z,27.93
2018-07-23T18:28:04.664Z,27.17
2018-07-23T18:30:32.870Z,26.57
2018-07-23T18:33:01.060Z,26.50
2018-07-23T18:35:29.327Z,27.00
2018-07-23T18:37:57.615Z,27.80
2018-07-23T18:40:26.813Z,28.40
2018-07-23T18:56:57.386Z,31.83
2018-07-23T18:59:25.624Z,32.90
2018-07-23T19:01:54.604Z,32.80
2018-07-23T19:04:22.803Z,30.90
2018-07-23T19:06:51.085Z,31.50
2018-07-23T19:09:21.466Z,27.70
2018-07-23T19:11:50.737Z,30.60
2018-07-23T19:14:19.100Z,32.20
2018-07-23T19:16:47.732Z,33.70
2018-07-23T19:19:15.921Z,33.23
2018-07-23T19:21:44.100Z,33.57
2018-07-23T19:24:12.312Z,34.20
2018-07-23T19:26:40.480Z,34.30
2018-07-23T19:29:08.674Z,34.47
2018-07-23T19:31:36.845Z,34.90
2018-07-23T19:34:05.294Z,33.70
2018-07-23T19:36:33.573Z,33.10
2018-07-23T19:39:01.930Z,32.97
2018-07-23T19:41:30.582Z,33.30
2018-07-23T19:43:58.729Z,31.50
2018-07-23T19:46:26.937Z,33.00
2018-07-23T19:48:55.128Z,33.03
2018-07-23T19:51:23.335Z,28.37
2018-07-23T19:53:51.521Z,32.57
2018-07-23T19:56:19.728Z,33.43
2018-07-23T19:58:47.929Z,32.30
2018-07-23T20:01:16.207Z,31.10
2018-07-23T20:03:44.717Z,31.00
2018-07-23T20:06:12.971Z,30.87
2018-07-23T20:08:41.172Z,32.50
2018-07-23T20:11:09.458Z,30.90
2018-07-23T20:13:37.629Z,34.90
2018-07-23T20:16:05.863Z,32.37
2018-07-23T20:18:34.076Z,34.20
2018-07-23T20:21:02.320Z,35.57
2018-07-23T20:23:30.678Z,34.57
2018-07-23T20:25:58.977Z,31.07
2018-07-23T20:28:27.203Z,28.77
2018-07-23T20:30:55.352Z,31.03
2018-07-23T20:33:23.585Z,30.97
2018-07-23T20:35:51.776Z,32.03
2018-07-23T20:38:19.985Z,31.77
2018-07-23T20:40:48.230Z,33.70
2018-07-23T20:43:16.435Z,34.23
2018-07-23T20:45:44.637Z,37.13
2018-07-23T20:48:12.772Z,38.97
2018-07-23T20:50:41.060Z,37.93
2018-07-23T20:53:09.234Z,34.57
2018-07-23T20:55:37.543Z,34.57
2018-07-23T20:58:07.402Z,34.93
2018-07-23T21:00:35.855Z,33.73
2018-07-23T21:03:04.343Z,31.13
2018-07-23T21:05:32.769Z,30.80
2018-07-23T21:08:01.275Z,30.00
2018-07-23T21:10:29.769Z,29.80
2018-07-23T21:12:58.255Z,29.37
2018-07-23T21:15:26.766Z,26.47
2018-07-23T21:17:58.528Z,26.80
2018-07-23T21:20:28.204Z,26.80
2018-07-23T21:22:56.693Z,26.33
2018-07-23T21:25:25.031Z,26.60
2018-07-23T21:27:53.540Z,25.57
2018-07-23T21:30:23.736Z,24.70
2018-07-23T21:32:56.196Z,25.63
2018-07-23T21:35:24.429Z,25.40
2018-07-23T21:37:52.672Z,24.33
2018-07-23T21:40:20.854Z,23.73
2018-07-23T21:42:49.327Z,25.10
2018-07-23T21:45:17.504Z,25.10
2018-07-23T21:47:45.680Z,23.50
2018-07-23T21:50:13.897Z,24.87
2018-07-23T21:52:42.086Z,24.70
2018-07-23T21:55:10.283Z,24.80
2018-07-23T21:57:38.464Z,25.23
2018-07-23T22:00:09.239Z,25.60
